sensor_id;sensor_type;location;lat;lon;timestamp;temperature;humidity
75517;DHT22;64097;52.548;13.406;2022-10-16T06:02:39;19.90;67.40
75517;DHT22;64097;52.548;13.406;2022-10-16T06:05:05;19.90;67.30
75517;DHT22;64097;52.548;13.406;2022-10-16T06:07:34;19.90;67.30
75517;DHT22;64097;52.548;13.406;2022-10-16T06:10:01;19.90;67.30
75517;DHT22;64097;52.548;13.406;2022-10-16T06:12:27;19.90;67.30
75517;DHT22;64097;52.548;13.406;2022-10-16T06:14:53;19.90;67.30
75517;DHT22;64097;52.548;13.406;2022-10-16T06:17:18;19.90;67.30
75517;DHT22;64097;52.548;13.406;2022-10-16T06:19:44;19.90;67.30
75517;DHT22;64097;52.548;13.406;2022-10-16T06:22:10;19.90;67.30
75517;DHT22;64097;52.548;13.406;2022-10-16T06:24:35;19.90;67.30
75517;DHT22;64097;52.548;13.406;2022-10-16T06:27:01;20.00;67.30
75517;DHT22;64097;52.548;13.406;2022-10-16T06:29:28;20.00;67.20
75517;DHT22;64097;52.548;13.406;2022-10-16T06:31:53;20.00;67.20
75517;DHT22;64097;52.548;13.406;2022-10-16T06:34:19;20.00;67.20
75517;DHT22;64097;52.548;13.406;2022-10-16T06:36:45;20.00;67.10
75517;DHT22;64097;52.548;13.406;2022-10-16T06:39:10;20.00;67.10
75517;DHT22;64097;52.548;13.406;2022-10-16T06:41:36;20.00;67.00
75517;DHT22;64097;52.548;13.406;2022-10-16T06:44:05;20.00;66.90
75517;DHT22;64097;52.548;13.406;2022-10-16T06:46:31;20.10;67.00
75517;DHT22;64097;52.548;13.406;2022-10-16T06:48:56;20.10;67.00
75517;DHT22;64097;52.548;13.406;2022-10-16T06:51:24;20.10;66.90
75517;DHT22;64097;52.548;13.406;2022-10-16T06:53:54;20.10;66.80
75517;DHT22;64097;52.548;13.406;2022-10-16T06:56:26;20.10;66.80
75517;DHT22;64097;52.548;13.406;2022-10-16T06:58:52;20.20;66.90
75517;DHT22;64097;52.548;13.406;2022-10-16T07:01:19;20.20;66.80
75517;DHT22;64097;52.548;13.406;2022-10-16T07:03:46;20.20;66.80
75517;DHT22;64097;52.548;13.406;2022-10-16T07:06:14;20.20;66.80
75517;DHT22;64097;52.548;13.406;2022-10-16T07:08:43;20.30;66.90
75517;DHT22;64097;52.548;13.406;2022-10-16T07:11:12;20.30;66.90
75517;DHT22;64097;52.548;13.406;2022-10-16T07:13:39;20.30;66.90
75517;DHT22;64097;52.548;13.406;2022-10-16T07:18:32;20.30;66.80
75517;DHT22;64097;52.548;13.406;2022-10-16T07:21:11;20.40;66.80
75517;DHT22;64097;52.548;13.406;2022-10-16T07:23:37;20.50;66.80
75517;DHT22;64097;52.548;13.406;2022-10-16T07:26:04;20.50;66.70
75517;DHT22;64097;52.548;13.406;2022-10-16T07:28:30;20.50;66.60
75517;DHT22;64097;52.548;13.406;2022-10-16T07:31:07;20.60;66.60
75517;DHT22;64097;52.548;13.406;2022-10-16T07:33:34;20.60;66.60
75517;DHT22;64097;52.548;13.406;2022-10-16T07:36:00;20.60;66.50
75517;DHT22;64097;52.548;13.406;2022-10-16T07:38:26;20.60;66.40
75517;DHT22;64097;52.548;13.406;2022-10-16T07:41:03;20.70;66.30
75517;DHT22;64097;52.548;13.406;2022-10-16T07:43:29;20.70;66.30
75517;DHT22;64097;52.548;13.406;2022-10-16T07:45:56;20.70;66.30
75517;DHT22;64097;52.548;13.406;2022-10-16T07:48:23;20.70;66.20
75517;DHT22;64097;52.548;13.406;2022-10-16T07:50:49;20.70;66.20
75517;DHT22;64097;52.548;13.406;2022-10-16T07:53:15;20.80;66.20
75517;DHT22;64097;52.548;13.406;2022-10-16T07:55:41;20.80;66.10
75517;DHT22;64097;52.548;13.406;2022-10-16T07:58:07;20.90;66.00
75517;DHT22;64097;52.548;13.406;2022-10-16T08:00:33;20.80;65.90
75517;DHT22;64097;52.548;13.406;2022-10-16T08:03:00;20.90;66.00
75517;DHT22;64097;52.548;13.406;2022-10-16T08:05:27;20.90;65.90
75517;DHT22;64097;52.548;13.406;2022-10-16T08:07:53;20.90;65.80
75517;DHT22;64097;52.548;13.406;2022-10-16T08:10:20;20.80;65.70
75517;DHT22;64097;52.548;13.406;2022-10-16T08:12:46;20.80;65.80
75517;DHT22;64097;52.548;13.406;2022-10-16T08:15:12;20.90;65.90
75517;DHT22;64097;52.548;13.406;2022-10-16T08:17:38;20.90;66.00
75517;DHT22;64097;52.548;13.406;2022-10-16T08:20:04;20.90;66.00
75517;DHT22;64097;52.548;13.406;2022-10-16T08:22:30;20.90;65.90
75517;DHT22;64097;52.548;13.406;2022-10-16T08:24:56;21.00;65.90
75517;DHT22;64097;52.548;13.406;2022-10-16T08:27:21;21.00;65.80
75517;DHT22;64097;52.548;13.406;2022-10-16T08:29:49;21.00;65.70
75517;DHT22;64097;52.548;13.406;2022-10-16T08:32:15;21.10;65.70
75517;DHT22;64097;52.548;13.406;2022-10-16T08:34:40;21.00;65.50
75517;DHT22;64097;52.548;13.406;2022-10-16T08:37:06;21.10;65.60
75517;DHT22;64097;52.548;13.406;2022-10-16T08:39:33;21.10;65.50
75517;DHT22;64097;52.548;13.406;2022-10-16T08:42:22;21.10;65.50
75517;DHT22;64097;52.548;13.406;2022-10-16T08:44:58;21.10;65.50
75517;DHT22;64097;52.548;13.406;2022-10-16T08:50:25;21.20;65.50
75517;DHT22;64097;52.548;13.406;2022-10-16T08:52:53;21.20;65.50
75517;DHT22;64097;52.548;13.406;2022-10-16T08:55:41;21.20;66.20
75517;DHT22;64097;52.548;13.406;2022-10-16T08:58:22;21.20;65.20
75517;DHT22;64097;52.548;13.406;2022-10-16T09:01:00;21.30;65.20
75517;DHT22;64097;52.548;13.406;2022-10-16T09:06:22;21.30;65.10
75517;DHT22;64097;52.548;13.406;2022-10-16T09:19:49;21.50;65.60
75517;DHT22;64097;52.548;13.406;2022-10-16T09:22:17;21.50;64.60
75517;DHT22;64097;52.548;13.406;2022-10-16T09:24:43;21.50;64.50
75517;DHT22;64097;52.548;13.406;2022-10-16T09:27:14;21.60;64.50
75517;DHT22;64097;52.548;13.406;2022-10-16T09:29:40;21.60;64.40
75517;DHT22;64097;52.548;13.406;2022-10-16T09:32:15;21.60;64.10
75517;DHT22;64097;52.548;13.406;2022-10-16T09:34:50;21.60;64.20
75517;DHT22;64097;52.548;13.406;2022-10-16T09:37:20;21.60;63.80
75517;DHT22;64097;52.548;13.406;2022-10-16T09:39:53;21.60;63.90
75517;DHT22;64097;52.548;13.406;2022-10-16T09:44:51;21.60;63.90
75517;DHT22;64097;52.548;13.406;2022-10-16T09:47:21;21.60;63.90
75517;DHT22;64097;52.548;13.406;2022-10-16T09:50:00;21.60;63.90
75517;DHT22;64097;52.548;13.406;2022-10-16T09:52:28;21.70;63.90
75517;DHT22;64097;52.548;13.406;2022-10-16T09:55:09;21.70;63.80
75517;DHT22;64097;52.548;13.406;2022-10-16T09:57:51;21.60;63.70
75517;DHT22;64097;52.548;13.406;2022-10-16T10:00:18;21.70;64.60
75517;DHT22;64097;52.548;13.406;2022-10-16T10:02:45;21.70;63.70
75517;DHT22;64097;52.548;13.406;2022-10-16T10:05:29;21.70;63.80
75517;DHT22;64097;52.548;13.406;2022-10-16T10:08:04;21.70;63.70
75517;DHT22;64097;52.548;13.406;2022-10-16T10:10:33;21.80;63.70
75517;DHT22;64097;52.548;13.406;2022-10-16T10:13:00;21.80;63.60
75517;DHT22;64097;52.548;13.406;2022-10-16T10:15:29;21.90;63.30
75517;DHT22;64097;52.548;13.406;2022-10-16T10:17:58;21.90;63.00
75517;DHT22;64097;52.548;13.406;2022-10-16T10:20:25;21.90;63.00
75517;DHT22;64097;52.548;13.406;2022-10-16T10:22:53;21.90;62.90
75517;DHT22;64097;52.548;13.406;2022-10-16T10:26:11;22.00;62.80
75517;DHT22;64097;52.548;13.406;2022-10-16T10:28:42;22.00;62.50
75517;DHT22;64097;52.548;13.406;2022-10-16T10:31:29;22.00;62.40
75517;DHT22;64097;52.548;13.406;2022-10-16T10:36:40;22.10;61.80
75517;DHT22;64097;52.548;13.406;2022-10-16T10:39:15;22.10;61.80
75517;DHT22;64097;52.548;13.406;2022-10-16T10:42:04;22.10;61.80
75517;DHT22;64097;52.548;13.406;2022-10-16T10:49:48;22.10;61.60
75517;DHT22;64097;52.548;13.406;2022-10-16T11:06:24;22.40;60.50
75517;DHT22;64097;52.548;13.406;2022-10-16T11:09:11;22.50;60.30
75517;DHT22;64097;52.548;13.406;2022-10-16T11:11:43;22.50;60.20
75517;DHT22;64097;52.548;13.406;2022-10-16T11:14:39;22.60;60.10
75517;DHT22;64097;52.548;13.406;2022-10-16T11:17:25;22.60;59.30
75517;DHT22;64097;52.548;13.406;2022-10-16T11:20:14;22.60;59.50
75517;DHT22;64097;52.548;13.406;2022-10-16T11:22:52;22.70;59.20
75517;DHT22;64097;52.548;13.406;2022-10-16T11:25:30;22.70;59.40
75517;DHT22;64097;52.548;13.406;2022-10-16T11:28:23;22.80;59.30
75517;DHT22;64097;52.548;13.406;2022-10-16T11:31:02;22.80;59.00
75517;DHT22;64097;52.548;13.406;2022-10-16T11:33:44;22.80;58.60
75517;DHT22;64097;52.548;13.406;2022-10-16T11:39:07;22.70;58.30
75517;DHT22;64097;52.548;13.406;2022-10-16T11:44:09;22.60;58.20
75517;DHT22;64097;52.548;13.406;2022-10-16T11:46:40;22.60;58.20
75517;DHT22;64097;52.548;13.406;2022-10-16T11:49:21;22.60;57.90
75517;DHT22;64097;52.548;13.406;2022-10-16T11:57:20;22.50;57.70
75517;DHT22;64097;52.548;13.406;2022-10-16T11:59:51;22.50;58.00
75517;DHT22;64097;52.548;13.406;2022-10-16T12:02:32;22.50;58.00
75517;DHT22;64097;52.548;13.406;2022-10-16T12:08:07;22.40;57.90
75517;DHT22;64097;52.548;13.406;2022-10-16T12:10:34;22.40;57.90
75517;DHT22;64097;52.548;13.406;2022-10-16T12:16:20;22.40;57.60
75517;DHT22;64097;52.548;13.406;2022-10-16T12:18:47;22.30;57.60
75517;DHT22;64097;52.548;13.406;2022-10-16T12:21:15;22.30;57.30
75517;DHT22;64097;52.548;13.406;2022-10-16T12:24:02;22.30;57.40
75517;DHT22;64097;52.548;13.406;2022-10-16T12:26:33;22.30;57.40
75517;DHT22;64097;52.548;13.406;2022-10-16T12:29:36;22.30;56.50
75517;DHT22;64097;52.548;13.406;2022-10-16T12:32:05;22.30;56.90
75517;DHT22;64097;52.548;13.406;2022-10-16T12:34:44;22.30;56.00
75517;DHT22;64097;52.548;13.406;2022-10-16T12:39:38;22.30;56.40
75517;DHT22;64097;52.548;13.406;2022-10-16T12:42:19;22.30;56.40
75517;DHT22;64097;52.548;13.406;2022-10-16T12:44:45;22.30;56.00
75517;DHT22;64097;52.548;13.406;2022-10-16T12:49:55;22.30;55.30
75517;DHT22;64097;52.548;13.406;2022-10-16T12:54:57;22.40;55.00
75517;DHT22;64097;52.548;13.406;2022-10-16T13:00:15;22.40;55.10
75517;DHT22;64097;52.548;13.406;2022-10-16T13:05:47;22.40;55.00
75517;DHT22;64097;52.548;13.406;2022-10-16T13:11:52;22.40;54.70
75517;DHT22;64097;52.548;13.406;2022-10-16T13:14:31;22.40;54.60
75517;DHT22;64097;52.548;13.406;2022-10-16T13:17:25;22.40;54.30
75517;DHT22;64097;52.548;13.406;2022-10-16T13:20:13;22.40;54.10
75517;DHT22;64097;52.548;13.406;2022-10-16T13:28:11;22.40;53.90
75517;DHT22;64097;52.548;13.406;2022-10-16T13:30:45;22.40;54.10
75517;DHT22;64097;52.548;13.406;2022-10-16T13:33:23;22.40;54.00
75517;DHT22;64097;52.548;13.406;2022-10-16T13:35:55;22.40;54.10
75517;DHT22;64097;52.548;13.406;2022-10-16T13:38:26;22.40;54.10
75517;DHT22;64097;52.548;13.406;2022-10-16T13:40:56;22.30;53.90
75517;DHT22;64097;52.548;13.406;2022-10-16T13:43:29;22.40;54.20
75517;DHT22;64097;52.548;13.406;2022-10-16T13:45:59;22.40;53.90
75517;DHT22;64097;52.548;13.406;2022-10-16T13:48:26;22.40;54.10
75517;DHT22;64097;52.548;13.406;2022-10-16T13:53:37;22.40;54.10
75517;DHT22;64097;52.548;13.406;2022-10-16T13:56:05;22.40;54.20
75517;DHT22;64097;52.548;13.406;2022-10-16T13:58:31;22.40;54.20
